sensor_id;sensor_type;location;lat;lon;timestamp;temperature;humidity
41644;DHT22;44236;48.098;11.582;2024-03-23T00:54:22;22.40;43.30
41644;DHT22;44236;48.098;11.582;2024-03-23T00:56:47;22.40;43.30
41644;DHT22;44236;48.098;11.582;2024-03-23T00:59:13;22.40;43.40
41644;DHT22;44236;48.098;11.582;2024-03-23T01:01:39;22.40;43.50
41644;DHT22;44236;48.098;11.582;2024-03-23T01:04:05;22.30;43.50
41644;DHT22;44236;48.098;11.582;2024-03-23T01:06:30;22.30;43.60
41644;DHT22;44236;48.098;11.582;2024-03-23T01:08:56;22.30;43.60
41644;DHT22;44236;48.098;11.582;2024-03-23T01:11:21;22.20;43.60
41644;DHT22;44236;48.098;11.582;2024-03-23T01:13:47;22.20;43.70
41644;DHT22;44236;48.098;11.582;2024-03-23T01:16:12;22.20;43.70
41644;DHT22;44236;48.098;11.582;2024-03-23T01:18:38;22.10;43.70
41644;DHT22;44236;48.098;11.582;2024-03-23T01:21:04;22.10;43.80
41644;DHT22;44236;48.098;11.582;2024-03-23T01:23:29;22.10;43.90
41644;DHT22;44236;48.098;11.582;2024-03-23T01:25:55;22.10;43.90
41644;DHT22;44236;48.098;11.582;2024-03-23T01:28:21;22.00;43.80
41644;DHT22;44236;48.098;11.582;2024-03-23T01:30:47;22.00;43.90
41644;DHT22;44236;48.098;11.582;2024-03-23T01:33:12;22.00;43.90
41644;DHT22;44236;48.098;11.582;2024-03-23T01:35:38;22.00;44.00
41644;DHT22;44236;48.098;11.582;2024-03-23T01:38:04;21.90;43.90
41644;DHT22;44236;48.098;11.582;2024-03-23T01:40:30;21.90;44.00
41644;DHT22;44236;48.098;11.582;2024-03-23T01:43:00;21.90;44.00
41644;DHT22;44236;48.098;11.582;2024-03-23T01:45:27;21.90;44.10
41644;DHT22;44236;48.098;11.582;2024-03-23T01:47:52;21.90;44.10
41644;DHT22;44236;48.098;11.582;2024-03-23T01:50:22;21.80;44.10
41644;DHT22;44236;48.098;11.582;2024-03-23T01:52:49;21.80;44.10
41644;DHT22;44236;48.098;11.582;2024-03-23T01:55:14;21.80;44.20
41644;DHT22;44236;48.098;11.582;2024-03-23T01:57:40;21.80;44.20
41644;DHT22;44236;48.098;11.582;2024-03-23T02:00:06;21.70;44.20
41644;DHT22;44236;48.098;11.582;2024-03-23T02:02:32;21.70;44.20
41644;DHT22;44236;48.098;11.582;2024-03-23T02:04:58;21.70;44.20
41644;DHT22;44236;48.098;11.582;2024-03-23T02:07:24;21.70;44.30
41644;DHT22;44236;48.098;11.582;2024-03-23T02:09:51;21.70;44.30
41644;DHT22;44236;48.098;11.582;2024-03-23T02:12:18;21.70;44.30
41644;DHT22;44236;48.098;11.582;2024-03-23T02:14:44;21.60;44.30
41644;DHT22;44236;48.098;11.582;2024-03-23T02:17:09;21.60;44.30
41644;DHT22;44236;48.098;11.582;2024-03-23T02:19:35;21.60;44.30
41644;DHT22;44236;48.098;11.582;2024-03-23T02:22:00;21.60;44.40
41644;DHT22;44236;48.098;11.582;2024-03-23T02:24:26;21.60;44.40
41644;DHT22;44236;48.098;11.582;2024-03-23T02:26:52;21.50;44.40
41644;DHT22;44236;48.098;11.582;2024-03-23T02:29:17;21.50;44.40
41644;DHT22;44236;48.098;11.582;2024-03-23T02:31:45;21.50;44.40
41644;DHT22;44236;48.098;11.582;2024-03-23T02:34:10;21.50;44.40
41644;DHT22;44236;48.098;11.582;2024-03-23T02:36:36;21.50;44.40
41644;DHT22;44236;48.098;11.582;2024-03-23T02:39:01;21.50;44.50
41644;DHT22;44236;48.098;11.582;2024-03-23T02:41:27;21.50;44.50
41644;DHT22;44236;48.098;11.582;2024-03-23T02:43:53;21.40;44.50
41644;DHT22;44236;48.098;11.582;2024-03-23T02:46:18;21.40;44.50
41644;DHT22;44236;48.098;11.582;2024-03-23T02:48:44;21.40;44.50
41644;DHT22;44236;48.098;11.582;2024-03-23T02:51:10;21.40;44.50
41644;DHT22;44236;48.098;11.582;2024-03-23T02:53:35;21.30;44.50
41644;DHT22;44236;48.098;11.582;2024-03-23T02:56:01;21.40;44.60
41644;DHT22;44236;48.098;11.582;2024-03-23T02:58:27;21.40;44.60
41644;DHT22;44236;48.098;11.582;2024-03-23T03:00:52;21.30;44.50
41644;DHT22;44236;48.098;11.582;2024-03-23T03:03:18;21.30;44.60
41644;DHT22;44236;48.098;11.582;2024-03-23T03:05:44;21.30;44.60
41644;DHT22;44236;48.098;11.582;2024-03-23T03:08:09;21.30;44.60
41644;DHT22;44236;48.098;11.582;2024-03-23T03:10:35;21.30;44.70
41644;DHT22;44236;48.098;11.582;2024-03-23T03:13:02;21.30;44.60
41644;DHT22;44236;48.098;11.582;2024-03-23T03:15:28;21.30;44.70
41644;DHT22;44236;48.098;11.582;2024-03-23T03:17:53;21.20;44.60
41644;DHT22;44236;48.098;11.582;2024-03-23T03:20:19;21.20;44.60
41644;DHT22;44236;48.098;11.582;2024-03-23T03:22:47;21.20;44.60
41644;DHT22;44236;48.098;11.582;2024-03-23T03:25:12;21.20;44.60
41644;DHT22;44236;48.098;11.582;2024-03-23T03:27:38;21.20;44.70
41644;DHT22;44236;48.098;11.582;2024-03-23T03:30:04;21.10;44.70
41644;DHT22;44236;48.098;11.582;2024-03-23T03:32:32;21.10;44.70
41644;DHT22;44236;48.098;11.582;2024-03-23T03:34:58;21.10;44.70
41644;DHT22;44236;48.098;11.582;2024-03-23T03:37:24;21.10;44.60
41644;DHT22;44236;48.098;11.582;2024-03-23T03:39:50;21.10;44.70
41644;DHT22;44236;48.098;11.582;2024-03-23T03:42:15;21.10;44.80
41644;DHT22;44236;48.098;11.582;2024-03-23T03:44:41;21.10;44.70
41644;DHT22;44236;48.098;11.582;2024-03-23T03:47:07;21.10;44.80
41644;DHT22;44236;48.098;11.582;2024-03-23T03:49:32;21.10;44.80
41644;DHT22;44236;48.098;11.582;2024-03-23T03:51:58;21.00;44.70
41644;DHT22;44236;48.098;11.582;2024-03-23T03:54:24;21.10;44.80
41644;DHT22;44236;48.098;11.582;2024-03-23T03:56:49;21.00;44.70
41644;DHT22;44236;48.098;11.582;2024-03-23T03:59:15;20.40;44.50
41644;DHT22;44236;48.098;11.582;2024-03-23T04:01:41;21.00;44.70
41644;DHT22;44236;48.098;11.582;2024-03-23T04:04:06;21.00;44.80
41644;DHT22;44236;48.098;11.582;2024-03-23T04:06:32;21.00;45.30
41644;DHT22;44236;48.098;11.582;2024-03-23T04:08:58;21.00;44.80
41644;DHT22;44236;48.098;11.582;2024-03-23T04:11:24;21.00;44.80
41644;DHT22;44236;48.098;11.582;2024-03-23T04:13:50;21.00;44.80
41644;DHT22;44236;48.098;11.582;2024-03-23T04:16:29;20.90;44.80
41644;DHT22;44236;48.098;11.582;2024-03-23T04:18:55;20.90;44.80
41644;DHT22;44236;48.098;11.582;2024-03-23T04:21:22;20.90;44.70
41644;DHT22;44236;48.098;11.582;2024-03-23T04:23:48;20.90;44.70
41644;DHT22;44236;48.098;11.582;2024-03-23T04:26:14;20.90;44.70
41644;DHT22;44236;48.098;11.582;2024-03-23T04:28:40;20.90;44.90
41644;DHT22;44236;48.098;11.582;2024-03-23T04:31:06;20.90;44.90
41644;DHT22;44236;48.098;11.582;2024-03-23T04:33:31;20.90;44.80
41644;DHT22;44236;48.098;11.582;2024-03-23T04:35:57;20.90;44.90
41644;DHT22;44236;48.098;11.582;2024-03-23T04:38:22;20.80;44.70
41644;DHT22;44236;48.098;11.582;2024-03-23T04:40:58;20.80;44.80
41644;DHT22;44236;48.098;11.582;2024-03-23T04:43:25;20.80;44.90
41644;DHT22;44236;48.098;11.582;2024-03-23T04:45:51;20.80;44.80
41644;DHT22;44236;48.098;11.582;2024-03-23T04:48:19;20.80;44.80
41644;DHT22;44236;48.098;11.582;2024-03-23T04:50:44;20.80;44.90
41644;DHT22;44236;48.098;11.582;2024-03-23T04:53:10;20.80;44.80
41644;DHT22;44236;48.098;11.582;2024-03-23T04:55:35;20.80;44.90
41644;DHT22;44236;48.098;11.582;2024-03-23T04:58:01;20.80;44.80
41644;DHT22;44236;48.098;11.582;2024-03-23T05:00:27;20.70;44.90
41644;DHT22;44236;48.098;11.582;2024-03-23T05:02:52;20.70;44.90
41644;DHT22;44236;48.098;11.582;2024-03-23T05:05:18;20.70;44.90
41644;DHT22;44236;48.098;11.582;2024-03-23T05:07:44;20.80;44.80
41644;DHT22;44236;48.098;11.582;2024-03-23T05:10:10;21.00;44.70
41644;DHT22;44236;48.098;11.582;2024-03-23T05:12:37;21.20;44.30
41644;DHT22;44236;48.098;11.582;2024-03-23T05:15:04;21.50;43.80
41644;DHT22;44236;48.098;11.582;2024-03-23T05:17:31;21.80;43.30
41644;DHT22;44236;48.098;11.582;2024-03-23T05:19:57;22.10;42.90
41644;DHT22;44236;48.098;11.582;2024-03-23T05:22:22;22.30;42.30
41644;DHT22;44236;48.098;11.582;2024-03-23T05:24:48;22.60;41.70
41644;DHT22;44236;48.098;11.582;2024-03-23T05:27:14;22.90;41.20
41644;DHT22;44236;48.098;11.582;2024-03-23T05:29:40;23.20;40.80
41644;DHT22;44236;48.098;11.582;2024-03-23T05:32:05;23.50;40.30
41644;DHT22;44236;48.098;11.582;2024-03-23T05:34:31;23.70;39.90
41644;DHT22;44236;48.098;11.582;2024-03-23T05:36:57;23.70;39.60
41644;DHT22;44236;48.098;11.582;2024-03-23T05:39:23;23.90;39.60
41644;DHT22;44236;48.098;11.582;2024-03-23T05:41:49;23.90;39.50
41644;DHT22;44236;48.098;11.582;2024-03-23T05:44:14;24.00;39.30
41644;DHT22;44236;48.098;11.582;2024-03-23T05:46:41;24.10;39.20
41644;DHT22;44236;48.098;11.582;2024-03-23T05:49:06;24.20;39.20
41644;DHT22;44236;48.098;11.582;2024-03-23T05:51:32;24.30;39.00
41644;DHT22;44236;48.098;11.582;2024-03-23T05:53:58;24.50;38.80
41644;DHT22;44236;48.098;11.582;2024-03-23T05:56:24;24.60;38.50
41644;DHT22;44236;48.098;11.582;2024-03-23T05:58:51;24.80;38.30
41644;DHT22;44236;48.098;11.582;2024-03-23T06:01:16;25.00;38.00
41644;DHT22;44236;48.098;11.582;2024-03-23T06:03:43;25.20;37.80
41644;DHT22;44236;48.098;11.582;2024-03-23T06:06:09;25.30;37.60
41644;DHT22;44236;48.098;11.582;2024-03-23T06:08:37;25.50;37.60
41644;DHT22;44236;48.098;11.582;2024-03-23T06:11:03;25.60;37.40
41644;DHT22;44236;48.098;11.582;2024-03-23T06:13:29;25.80;37.20
41644;DHT22;44236;48.098;11.582;2024-03-23T06:15:56;25.90;37.00
41644;DHT22;44236;48.098;11.582;2024-03-23T06:18:21;26.00;36.80
41644;DHT22;44236;48.098;11.582;2024-03-23T06:20:47;26.20;36.80
41644;DHT22;44236;48.098;11.582;2024-03-23T06:23:13;26.20;36.50
41644;DHT22;44236;48.098;11.582;2024-03-23T06:25:40;26.40;36.50
41644;DHT22;44236;48.098;11.582;2024-03-23T06:28:05;26.60;36.40
41644;DHT22;44236;48.098;11.582;2024-03-23T06:30:31;26.70;36.50
41644;DHT22;44236;48.098;11.582;2024-03-23T06:32:57;26.90;36.00
41644;DHT22;44236;48.098;11.582;2024-03-23T06:35:23;26.90;36.00
41644;DHT22;44236;48.098;11.582;2024-03-23T06:37:49;26.90;35.90
41644;DHT22;44236;48.098;11.582;2024-03-23T06:40:14;26.90;36.00
41644;DHT22;44236;48.098;11.582;2024-03-23T06:42:40;27.00;35.90
41644;DHT22;44236;48.098;11.582;2024-03-23T06:45:06;26.60;31.70
41644;DHT22;44236;48.098;11.582;2024-03-23T06:47:32;26.00;30.20
41644;DHT22;44236;48.098;11.582;2024-03-23T06:49:59;25.60;30.80
41644;DHT22;44236;48.098;11.582;2024-03-23T06:52:27;25.50;32.00
41644;DHT22;44236;48.098;11.582;2024-03-23T06:54:53;26.10;33.50
41644;DHT22;44236;48.098;11.582;2024-03-23T06:57:19;26.50;33.60
41644;DHT22;44236;48.098;11.582;2024-03-23T06:59:44;26.70;33.60
41644;DHT22;44236;48.098;11.582;2024-03-23T07:02:10;26.90;34.00
41644;DHT22;44236;48.098;11.582;2024-03-23T07:04:36;27.10;34.10
41644;DHT22;44236;48.098;11.582;2024-03-23T07:07:02;27.40;34.10
41644;DHT22;44236;48.098;11.582;2024-03-23T07:09:28;27.60;33.70
41644;DHT22;44236;48.098;11.582;2024-03-23T07:11:55;27.80;33.80
41644;DHT22;44236;48.098;11.582;2024-03-23T07:14:22;27.90;33.00
41644;DHT22;44236;48.098;11.582;2024-03-23T07:16:48;27.60;30.30
41644;DHT22;44236;48.098;11.582;2024-03-23T07:19:15;27.20;30.30
41644;DHT22;44236;48.098;11.582;2024-03-23T07:21:42;26.60;29.80
41644;DHT22;44236;48.098;11.582;2024-03-23T07:24:08;26.10;30.40
41644;DHT22;44236;48.098;11.582;2024-03-23T07:26:33;26.50;32.50
41644;DHT22;44236;48.098;11.582;2024-03-23T07:28:59;27.00;32.60
41644;DHT22;44236;48.098;11.582;2024-03-23T07:31:24;27.10;32.60
41644;DHT22;44236;48.098;11.582;2024-03-23T07:33:50;27.40;32.80
41644;DHT22;44236;48.098;11.582;2024-03-23T07:36:16;27.50;32.90
41644;DHT22;44236;48.098;11.582;2024-03-23T07:38:42;27.60;32.80
41644;DHT22;44236;48.098;11.582;2024-03-23T07:41:11;27.70;32.90
41644;DHT22;44236;48.098;11.582;2024-03-23T07:43:38;27.90;32.90
41644;DHT22;44236;48.098;11.582;2024-03-23T07:46:04;27.90;32.70
41644;DHT22;44236;48.098;11.582;2024-03-23T07:48:30;28.00;32.60
41644;DHT22;44236;48.098;11.582;2024-03-23T07:51:09;28.10;32.70
41644;DHT22;44236;48.098;11.582;2024-03-23T07:53:36;28.20;32.80
41644;DHT22;44236;48.098;11.582;2024-03-23T07:56:07;28.30;32.70
41644;DHT22;44236;48.098;11.582;2024-03-23T07:58:34;28.40;32.60
41644;DHT22;44236;48.098;11.582;2024-03-23T08:01:07;28.40;32.90
41644;DHT22;44236;48.098;11.582;2024-03-23T08:03:34;28.50;32.80
41644;DHT22;44236;48.098;11.582;2024-03-23T08:06:16;28.60;33.00
41644;DHT22;44236;48.098;11.582;2024-03-23T08:08:44;28.60;33.00
41644;DHT22;44236;48.098;11.582;2024-03-23T08:11:10;28.60;33.00
41644;DHT22;44236;48.098;11.582;2024-03-23T08:13:38;28.70;33.60
41644;DHT22;44236;48.098;11.582;2024-03-23T08:16:04;28.60;34.20
41644;DHT22;44236;48.098;11.582;2024-03-23T08:18:30;28.50;34.30
41644;DHT22;44236;48.098;11.582;2024-03-23T08:21:00;28.50;33.90
41644;DHT22;44236;48.098;11.582;2024-03-23T08:23:31;28.50;33.90
41644;DHT22;44236;48.098;11.582;2024-03-23T08:25:59;28.60;33.70
41644;DHT22;44236;48.098;11.582;2024-03-23T08:28:25;28.80;33.80
41644;DHT22;44236;48.098;11.582;2024-03-23T08:30:51;28.80;33.90
41644;DHT22;44236;48.098;11.582;2024-03-23T08:33:17;28.70;33.80
41644;DHT22;44236;48.098;11.582;2024-03-23T08:35:42;28.70;33.70
41644;DHT22;44236;48.098;11.582;2024-03-23T08:38:08;28.80;33.50
41644;DHT22;44236;48.098;11.582;2024-03-23T08:40:33;28.70;33.40
41644;DHT22;44236;48.098;11.582;2024-03-23T08:42:59;28.60;33.60
41644;DHT22;44236;48.098;11.582;2024-03-23T08:45:25;28.60;33.80
41644;DHT22;44236;48.098;11.582;2024-03-23T08:47:51;28.60;34.20
41644;DHT22;44236;48.098;11.582;2024-03-23T08:50:17;28.50;34.00
41644;DHT22;44236;48.098;11.582;2024-03-23T08:52:42;28.30;34.20
41644;DHT22;44236;48.098;11.582;2024-03-23T08:55:08;28.40;34.10
41644;DHT22;44236;48.098;11.582;2024-03-23T08:57:35;28.40;33.90
41644;DHT22;44236;48.098;11.582;2024-03-23T09:00:02;28.40;34.20
41644;DHT22;44236;48.098;11.582;2024-03-23T09:02:28;28.50;33.90
41644;DHT22;44236;48.098;11.582;2024-03-23T09:04:53;28.50;34.00
41644;DHT22;44236;48.098;11.582;2024-03-23T09:07:19;28.40;34.00
41644;DHT22;44236;48.098;11.582;2024-03-23T09:09:44;28.30;34.10
41644;DHT22;44236;48.098;11.582;2024-03-23T09:12:10;28.20;34.20
41644;DHT22;44236;48.098;11.582;2024-03-23T09:14:35;28.10;34.20
41644;DHT22;44236;48.098;11.582;2024-03-23T09:17:01;28.00;34.50
41644;DHT22;44236;48.098;11.582;2024-03-23T09:19:28;27.70;35.20
41644;DHT22;44236;48.098;11.582;2024-03-23T09:21:54;27.40;35.00
41644;DHT22;44236;48.098;11.582;2024-03-23T09:24:20;27.20;35.30
41644;DHT22;44236;48.098;11.582;2024-03-23T09:26:46;27.00;35.50
41644;DHT22;44236;48.098;11.582;2024-03-23T09:29:12;26.90;35.90
41644;DHT22;44236;48.098;11.582;2024-03-23T09:31:37;26.60;36.10
41644;DHT22;44236;48.098;11.582;2024-03-23T09:34:04;26.50;36.40
41644;DHT22;44236;48.098;11.582;2024-03-23T09:36:29;26.30;36.70
41644;DHT22;44236;48.098;11.582;2024-03-23T09:38:55;26.10;36.90
41644;DHT22;44236;48.098;11.582;2024-03-23T09:41:20;25.90;37.10
41644;DHT22;44236;48.098;11.582;2024-03-23T09:43:46;25.70;37.40
41644;DHT22;44236;48.098;11.582;2024-03-23T09:46:14;25.60;37.90
41644;DHT22;44236;48.098;11.582;2024-03-23T09:48:40;25.50;38.30
41644;DHT22;44236;48.098;11.582;2024-03-23T09:51:06;25.20;38.20
41644;DHT22;44236;48.098;11.582;2024-03-23T09:53:36;25.10;38.50
41644;DHT22;44236;48.098;11.582;2024-03-23T09:56:03;25.00;38.70
41644;DHT22;44236;48.098;11.582;2024-03-23T09:58:28;24.80;38.80
41644;DHT22;44236;48.098;11.582;2024-03-23T10:00:54;24.70;39.20
41644;DHT22;44236;48.098;11.582;2024-03-23T10:03:19;24.60;39.50
41644;DHT22;44236;48.098;11.582;2024-03-23T10:05:45;24.40;39.60
41644;DHT22;44236;48.098;11.582;2024-03-23T10:10:42;24.20;40.00
41644;DHT22;44236;48.098;11.582;2024-03-23T10:13:08;24.20;40.20
41644;DHT22;44236;48.098;11.582;2024-03-23T10:15:34;24.10;40.20
41644;DHT22;44236;48.098;11.582;2024-03-23T10:20:41;23.90;40.70
41644;DHT22;44236;48.098;11.582;2024-03-23T10:23:16;23.90;40.90
41644;DHT22;44236;48.098;11.582;2024-03-23T10:25:41;23.80;41.10
41644;DHT22;44236;48.098;11.582;2024-03-23T10:28:07;23.70;41.10
41644;DHT22;44236;48.098;11.582;2024-03-23T10:30:33;23.70;41.40
41644;DHT22;44236;48.098;11.582;2024-03-23T10:35:34;23.50;41.80
41644;DHT22;44236;48.098;11.582;2024-03-23T10:38:02;23.40;41.80
41644;DHT22;44236;48.098;11.582;2024-03-23T10:40:29;23.40;41.90
41644;DHT22;44236;48.098;11.582;2024-03-23T10:42:58;23.30;42.00
41644;DHT22;44236;48.098;11.582;2024-03-23T10:45:23;23.30;42.20
41644;DHT22;44236;48.098;11.582;2024-03-23T10:47:49;23.20;42.30
41644;DHT22;44236;48.098;11.582;2024-03-23T10:50:15;23.10;42.40
41644;DHT22;44236;48.098;11.582;2024-03-23T10:52:46;23.00;42.60
41644;DHT22;44236;48.098;11.582;2024-03-23T10:55:12;22.90;42.80
41644;DHT22;44236;48.098;11.582;2024-03-23T10:57:43;22.90;43.00
41644;DHT22;44236;48.098;11.582;2024-03-23T11:00:11;22.80;43.00
41644;DHT22;44236;48.098;11.582;2024-03-23T11:02:37;22.80;43.20
41644;DHT22;44236;48.098;11.582;2024-03-23T11:07:51;22.80;43.20
41644;DHT22;44236;48.098;11.582;2024-03-23T11:10:27;22.80;43.20
41644;DHT22;44236;48.098;11.582;2024-03-23T11:12:55;22.80;43.10
41644;DHT22;44236;48.098;11.582;2024-03-23T11:15:20;22.80;43.10
41644;DHT22;44236;48.098;11.582;2024-03-23T11:18:06;22.80;43.10
41644;DHT22;44236;48.098;11.582;2024-03-23T11:20:36;22.70;43.20
41644;DHT22;44236;48.098;11.582;2024-03-23T11:23:02;22.70;43.30
41644;DHT22;44236;48.098;11.582;2024-03-23T11:25:28;22.70;43.40
41644;DHT22;44236;48.098;11.582;2024-03-23T11:30:24;22.60;43.40
41644;DHT22;44236;48.098;11.582;2024-03-23T11:32:57;22.50;43.40
41644;DHT22;44236;48.098;11.582;2024-03-23T11:38:12;22.50;43.80
41644;DHT22;44236;48.098;11.582;2024-03-23T11:40:43;22.50;43.90
41644;DHT22;44236;48.098;11.582;2024-03-23T11:43:11;22.40;43.90
41644;DHT22;44236;48.098;11.582;2024-03-23T11:45:46;22.40;44.00
41644;DHT22;44236;48.098;11.582;2024-03-23T11:48:13;22.40;44.00
41644;DHT22;44236;48.098;11.582;2024-03-23T11:50:41;22.40;44.10
41644;DHT22;44236;48.098;11.582;2024-03-23T11:53:17;22.30;44.10
41644;DHT22;44236;48.098;11.582;2024-03-23T11:58:12;22.20;42.60
41644;DHT22;44236;48.098;11.582;2024-03-23T12:00:38;22.00;41.70
41644;DHT22;44236;48.098;11.582;2024-03-23T12:03:04;21.70;41.70
41644;DHT22;44236;48.098;11.582;2024-03-23T12:05:30;21.50;41.90
41644;DHT22;44236;48.098;11.582;2024-03-23T12:08:30;21.30;42.10
41644;DHT22;44236;48.098;11.582;2024-03-23T12:13:32;21.20;42.60
41644;DHT22;44236;48.098;11.582;2024-03-23T12:18:38;20.90;42.00
41644;DHT22;44236;48.098;11.582;2024-03-23T12:21:05;20.80;42.30
41644;DHT22;44236;48.098;11.582;2024-03-23T12:23:31;20.70;42.10
41644;DHT22;44236;48.098;11.582;2024-03-23T12:25:58;20.70;43.00
41644;DHT22;44236;48.098;11.582;2024-03-23T12:28:23;20.80;43.70
41644;DHT22;44236;48.098;11.582;2024-03-23T12:30:49;20.90;43.70
41644;DHT22;44236;48.098;11.582;2024-03-23T12:33:15;21.00;43.70
41644;DHT22;44236;48.098;11.582;2024-03-23T12:35:40;21.00;43.60
41644;DHT22;44236;48.098;11.582;2024-03-23T12:38:06;21.10;43.70
41644;DHT22;44236;48.098;11.582;2024-03-23T12:40:32;21.10;43.80
41644;DHT22;44236;48.098;11.582;2024-03-23T12:42:58;21.20;43.80
41644;DHT22;44236;48.098;11.582;2024-03-23T12:45:23;21.20;43.90
41644;DHT22;44236;48.098;11.582;2024-03-23T12:47:49;21.20;43.90
41644;DHT22;44236;48.098;11.582;2024-03-23T12:50:15;21.20;44.50
41644;DHT22;44236;48.098;11.582;2024-03-23T12:52:40;21.20;43.90
41644;DHT22;44236;48.098;11.582;2024-03-23T12:55:07;21.20;44.00
41644;DHT22;44236;48.098;11.582;2024-03-23T12:57:32;21.20;44.10
41644;DHT22;44236;48.098;11.582;2024-03-23T12:59:59;21.20;44.20
41644;DHT22;44236;48.098;11.582;2024-03-23T13:02:24;21.20;44.30
41644;DHT22;44236;48.098;11.582;2024-03-23T13:04:51;21.20;44.40
41644;DHT22;44236;48.098;11.582;2024-03-23T13:07:18;21.20;44.40
41644;DHT22;44236;48.098;11.582;2024-03-23T13:09:44;21.30;44.60
41644;DHT22;44236;48.098;11.582;2024-03-23T13:12:11;21.20;44.50
41644;DHT22;44236;48.098;11.582;2024-03-23T13:14:39;21.30;44.60
41644;DHT22;44236;48.098;11.582;2024-03-23T13:17:06;21.30;44.60
41644;DHT22;44236;48.098;11.582;2024-03-23T13:19:32;21.30;44.60
41644;DHT22;44236;48.098;11.582;2024-03-23T13:21:58;21.30;44.70
41644;DHT22;44236;48.098;11.582;2024-03-23T13:24:25;21.30;44.60
41644;DHT22;44236;48.098;11.582;2024-03-23T13:26:52;21.30;44.70
41644;DHT22;44236;48.098;11.582;2024-03-23T13:29:21;21.30;44.80
41644;DHT22;44236;48.098;11.582;2024-03-23T13:31:51;21.30;44.80
41644;DHT22;44236;48.098;11.582;2024-03-23T13:34:17;21.30;44.70
41644;DHT22;44236;48.098;11.582;2024-03-23T13:36:46;21.30;44.80
41644;DHT22;44236;48.098;11.582;2024-03-23T13:39:13;21.30;44.80
41644;DHT22;44236;48.098;11.582;2024-03-23T13:41:43;21.30;45.30
41644;DHT22;44236;48.098;11.582;2024-03-23T13:44:10;21.30;44.80
41644;DHT22;44236;48.098;11.582;2024-03-23T13:46:37;21.30;45.00
41644;DHT22;44236;48.098;11.582;2024-03-23T13:49:03;21.30;44.70
41644;DHT22;44236;48.098;11.582;2024-03-23T13:51:29;21.30;45.00
41644;DHT22;44236;48.098;11.582;2024-03-23T13:53:55;21.30;45.00
41644;DHT22;44236;48.098;11.582;2024-03-23T13:56:24;21.30;45.00
41644;DHT22;44236;48.098;11.582;2024-03-23T13:58:50;21.30;45.00
41644;DHT22;44236;48.098;11.582;2024-03-23T14:01:16;21.30;44.70
41644;DHT22;44236;48.098;11.582;2024-03-23T14:03:42;20.70;44.70
41644;DHT22;44236;48.098;11.582;2024-03-23T14:06:09;21.30;45.00
41644;DHT22;44236;48.098;11.582;2024-03-23T14:08:38;21.30;45.20
41644;DHT22;44236;48.098;11.582;2024-03-23T14:11:10;21.30;45.20
41644;DHT22;44236;48.098;11.582;2024-03-23T14:13:36;21.30;45.20
41644;DHT22;44236;48.098;11.582;2024-03-23T14:16:02;21.30;45.20
41644;DHT22;44236;48.098;11.582;2024-03-23T14:18:28;21.30;45.20
41644;DHT22;44236;48.098;11.582;2024-03-23T14:20:59;21.30;45.20
41644;DHT22;44236;48.098;11.582;2024-03-23T14:23:26;21.20;45.10
41644;DHT22;44236;48.098;11.582;2024-03-23T14:25:55;21.20;42.20
41644;DHT22;44236;48.098;11.582;2024-03-23T14:28:22;20.70;42.60
41644;DHT22;44236;48.098;11.582;2024-03-23T14:30:49;20.60;43.90
41644;DHT22;44236;48.098;11.582;2024-03-23T14:33:16;20.60;44.90
41644;DHT22;44236;48.098;11.582;2024-03-23T14:35:42;20.70;45.50
41644;DHT22;44236;48.098;11.582;2024-03-23T14:38:07;20.80;45.20
41644;DHT22;44236;48.098;11.582;2024-03-23T14:40:33;20.90;45.30
41644;DHT22;44236;48.098;11.582;2024-03-23T14:42:59;20.90;45.30
41644;DHT22;44236;48.098;11.582;2024-03-23T14:45:25;21.00;45.20
41644;DHT22;44236;48.098;11.582;2024-03-23T14:47:51;21.00;45.50
41644;DHT22;44236;48.098;11.582;2024-03-23T14:50:17;21.10;45.50
41644;DHT22;44236;48.098;11.582;2024-03-23T14:52:46;21.00;45.50
41644;DHT22;44236;48.098;11.582;2024-03-23T14:55:12;21.00;45.40
41644;DHT22;44236;48.098;11.582;2024-03-23T14:57:40;21.10;45.50
41644;DHT22;44236;48.098;11.582;2024-03-23T15:00:09;21.00;45.50
41644;DHT22;44236;48.098;11.582;2024-03-23T15:02:38;21.10;45.50
41644;DHT22;44236;48.098;11.582;2024-03-23T15:07:33;21.20;60.10
41644;DHT22;44236;48.098;11.582;2024-03-23T15:09:59;21.30;59.80
41644;DHT22;44236;48.098;11.582;2024-03-23T15:17:16;21.50;68.60
41644;DHT22;44236;48.098;11.582;2024-03-23T15:19:42;21.20;55.30
41644;DHT22;44236;48.098;11.582;2024-03-23T15:24:36;20.10;73.90
41644;DHT22;44236;48.098;11.582;2024-03-23T15:27:03;20.20;69.70
41644;DHT22;44236;48.098;11.582;2024-03-23T15:29:29;20.30;68.50
41644;DHT22;44236;48.098;11.582;2024-03-23T15:31:54;20.20;44.60
41644;DHT22;44236;48.098;11.582;2024-03-23T15:34:20;20.40;44.60
41644;DHT22;44236;48.098;11.582;2024-03-23T15:36:49;20.50;44.40
41644;DHT22;44236;48.098;11.582;2024-03-23T15:39:16;20.60;44.30
41644;DHT22;44236;48.098;11.582;2024-03-23T15:41:46;20.70;44.20
41644;DHT22;44236;48.098;11.582;2024-03-23T15:44:12;20.70;44.20
41644;DHT22;44236;48.098;11.582;2024-03-23T15:46:38;20.70;44.80
41644;DHT22;44236;48.098;11.582;2024-03-23T15:49:04;20.70;42.40
41644;DHT22;44236;48.098;11.582;2024-03-23T15:51:30;20.60;40.90
41644;DHT22;44236;48.098;11.582;2024-03-23T15:54:00;20.30;40.30
41644;DHT22;44236;48.098;11.582;2024-03-23T15:56:26;20.10;40.80
41644;DHT22;44236;48.098;11.582;2024-03-23T15:58:51;20.10;41.70
41644;DHT22;44236;48.098;11.582;2024-03-23T16:01:17;20.20;42.30
41644;DHT22;44236;48.098;11.582;2024-03-23T16:03:43;20.30;43.00
41644;DHT22;44236;48.098;11.582;2024-03-23T16:06:09;20.50;43.50
41644;DHT22;44236;48.098;11.582;2024-03-23T16:08:35;20.70;43.10
41644;DHT22;44236;48.098;11.582;2024-03-23T16:11:02;21.00;42.90
41644;DHT22;44236;48.098;11.582;2024-03-23T16:13:28;21.20;42.50
41644;DHT22;44236;48.098;11.582;2024-03-23T16:15:58;21.60;43.70
41644;DHT22;44236;48.098;11.582;2024-03-23T16:18:24;21.70;40.10
41644;DHT22;44236;48.098;11.582;2024-03-23T16:20:53;21.40;39.50
41644;DHT22;44236;48.098;11.582;2024-03-23T16:23:19;21.50;41.20
41644;DHT22;44236;48.098;11.582;2024-03-23T16:25:51;22.00;41.40
41644;DHT22;44236;48.098;11.582;2024-03-23T16:28:26;22.40;41.00
41644;DHT22;44236;48.098;11.582;2024-03-23T16:33:23;23.20;40.30
41644;DHT22;44236;48.098;11.582;2024-03-23T16:36:13;23.60;40.80
41644;DHT22;44236;48.098;11.582;2024-03-23T16:38:41;23.80;40.50
41644;DHT22;44236;48.098;11.582;2024-03-23T16:41:07;24.00;38.90